sensor_id;sensor_type;location;lat;lon;timestamp;temperature;humidity
12720;DHT22;6424;48.520;11.228;2023-08-07T00:04:08;10.80;99.90
12720;DHT22;6424;48.520;11.228;2023-08-07T00:06:49;10.70;99.90
12720;DHT22;6424;48.520;11.228;2023-08-07T00:09:30;10.70;99.90
12720;DHT22;6424;48.520;11.228;2023-08-07T00:12:11;10.60;99.90
12720;DHT22;6424;48.520;11.228;2023-08-07T00:14:52;10.60;99.90
12720;DHT22;6424;48.520;11.228;2023-08-07T00:17:33;10.60;99.90
12720;DHT22;6424;48.520;11.228;2023-08-07T00:20:13;10.60;99.90
12720;DHT22;6424;48.520;11.228;2023-08-07T00:22:54;10.60;99.90
12720;DHT22;6424;48.520;11.228;2023-08-07T00:25:35;10.50;99.90
12720;DHT22;6424;48.520;11.228;2023-08-07T00:28:15;10.50;99.90
12720;DHT22;6424;48.520;11.228;2023-08-07T00:30:41;10.40;99.90
12720;DHT22;6424;48.520;11.228;2023-08-07T00:33:07;10.40;99.90
12720;DHT22;6424;48.520;11.228;2023-08-07T00:35:48;10.40;99.90
12720;DHT22;6424;48.520;11.228;2023-08-07T00:38:28;10.40;99.90
12720;DHT22;6424;48.520;11.228;2023-08-07T00:41:09;10.30;99.90
12720;DHT22;6424;48.520;11.228;2023-08-07T00:43:50;10.30;99.90
12720;DHT22;6424;48.520;11.228;2023-08-07T00:46:31;10.30;99.90
12720;DHT22;6424;48.520;11.228;2023-08-07T00:49:12;10.30;99.90
12720;DHT22;6424;48.520;11.228;2023-08-07T00:51:54;10.30;99.90
12720;DHT22;6424;48.520;11.228;2023-08-07T00:54:35;10.30;99.90
12720;DHT22;6424;48.520;11.228;2023-08-07T00:57:17;10.30;99.90
12720;DHT22;6424;48.520;11.228;2023-08-07T00:59:59;10.30;99.90
12720;DHT22;6424;48.520;11.228;2023-08-07T01:02:39;10.30;99.90
12720;DHT22;6424;48.520;11.228;2023-08-07T01:05:20;10.30;99.90
12720;DHT22;6424;48.520;11.228;2023-08-07T01:08:01;10.30;99.90
12720;DHT22;6424;48.520;11.228;2023-08-07T01:13:40;10.30;99.90
12720;DHT22;6424;48.520;11.228;2023-08-07T01:16:41;10.30;99.90
12720;DHT22;6424;48.520;11.228;2023-08-07T01:19:27;10.30;99.90
12720;DHT22;6424;48.520;11.228;2023-08-07T01:22:15;10.30;99.90
12720;DHT22;6424;48.520;11.228;2023-08-07T01:24:57;10.30;99.90
12720;DHT22;6424;48.520;11.228;2023-08-07T01:27:44;10.20;99.90
12720;DHT22;6424;48.520;11.228;2023-08-07T01:33:42;10.20;99.90
12720;DHT22;6424;48.520;11.228;2023-08-07T01:36:26;10.20;99.90
12720;DHT22;6424;48.520;11.228;2023-08-07T01:39:08;10.20;99.90
12720;DHT22;6424;48.520;11.228;2023-08-07T01:41:50;10.20;99.90
12720;DHT22;6424;48.520;11.228;2023-08-07T01:44:31;10.20;99.90
12720;DHT22;6424;48.520;11.228;2023-08-07T01:47:12;10.20;99.90
12720;DHT22;6424;48.520;11.228;2023-08-07T01:49:53;10.20;99.90
12720;DHT22;6424;48.520;11.228;2023-08-07T01:52:33;10.20;99.90
12720;DHT22;6424;48.520;11.228;2023-08-07T01:55:16;10.20;99.90
12720;DHT22;6424;48.520;11.228;2023-08-07T01:57:57;10.20;99.90
12720;DHT22;6424;48.520;11.228;2023-08-07T02:00:23;10.20;99.90
12720;DHT22;6424;48.520;11.228;2023-08-07T02:03:03;10.20;99.90
12720;DHT22;6424;48.520;11.228;2023-08-07T02:05:29;10.20;99.90
12720;DHT22;6424;48.520;11.228;2023-08-07T02:08:10;10.20;99.90
12720;DHT22;6424;48.520;11.228;2023-08-07T02:10:51;10.20;99.90
12720;DHT22;6424;48.520;11.228;2023-08-07T02:13:31;10.20;99.90
12720;DHT22;6424;48.520;11.228;2023-08-07T02:16:12;10.20;99.90
12720;DHT22;6424;48.520;11.228;2023-08-07T02:18:53;10.20;99.90
12720;DHT22;6424;48.520;11.228;2023-08-07T02:21:19;10.20;99.90
12720;DHT22;6424;48.520;11.228;2023-08-07T02:24:00;10.20;99.90
12720;DHT22;6424;48.520;11.228;2023-08-07T02:26:25;10.20;99.90
12720;DHT22;6424;48.520;11.228;2023-08-07T02:29:06;10.20;99.90
12720;DHT22;6424;48.520;11.228;2023-08-07T02:31:34;10.20;99.90
12720;DHT22;6424;48.520;11.228;2023-08-07T02:34:15;10.20;99.90
12720;DHT22;6424;48.520;11.228;2023-08-07T02:36:56;10.20;99.90
12720;DHT22;6424;48.520;11.228;2023-08-07T02:39:36;10.20;99.90
12720;DHT22;6424;48.520;11.228;2023-08-07T02:42:17;10.20;99.90
12720;DHT22;6424;48.520;11.228;2023-08-07T02:44:58;10.10;99.90
12720;DHT22;6424;48.520;11.228;2023-08-07T02:47:39;10.10;99.90
12720;DHT22;6424;48.520;11.228;2023-08-07T02:50:19;10.10;99.90
12720;DHT22;6424;48.520;11.228;2023-08-07T02:53:01;10.10;99.90
12720;DHT22;6424;48.520;11.228;2023-08-07T02:55:43;10.10;99.90
12720;DHT22;6424;48.520;11.228;2023-08-07T02:58:24;10.10;99.90
12720;DHT22;6424;48.520;11.228;2023-08-07T03:01:05;10.10;99.90
12720;DHT22;6424;48.520;11.228;2023-08-07T03:03:46;10.10;99.90
12720;DHT22;6424;48.520;11.228;2023-08-07T03:06:13;10.10;99.90
12720;DHT22;6424;48.520;11.228;2023-08-07T03:08:53;10.10;99.90
12720;DHT22;6424;48.520;11.228;2023-08-07T03:11:34;10.10;99.90
12720;DHT22;6424;48.520;11.228;2023-08-07T03:14:15;10.20;99.90
12720;DHT22;6424;48.520;11.228;2023-08-07T03:16:56;10.20;99.90
12720;DHT22;6424;48.520;11.228;2023-08-07T03:19:37;10.10;99.90
12720;DHT22;6424;48.520;11.228;2023-08-07T03:22:17;10.10;99.90
12720;DHT22;6424;48.520;11.228;2023-08-07T03:24:58;10.10;99.90
12720;DHT22;6424;48.520;11.228;2023-08-07T03:27:39;10.10;99.90
12720;DHT22;6424;48.520;11.228;2023-08-07T03:30:20;10.20;99.90
12720;DHT22;6424;48.520;11.228;2023-08-07T03:33:01;10.20;99.90
12720;DHT22;6424;48.520;11.228;2023-08-07T03:35:26;10.20;99.90
12720;DHT22;6424;48.520;11.228;2023-08-07T03:38:07;10.10;99.90
12720;DHT22;6424;48.520;11.228;2023-08-07T03:40:48;10.10;99.90
12720;DHT22;6424;48.520;11.228;2023-08-07T03:43:28;10.10;99.90
12720;DHT22;6424;48.520;11.228;2023-08-07T03:46:09;10.20;99.90
12720;DHT22;6424;48.520;11.228;2023-08-07T03:48:50;10.20;99.90
12720;DHT22;6424;48.520;11.228;2023-08-07T03:51:31;10.20;99.90
12720;DHT22;6424;48.520;11.228;2023-08-07T03:54:12;10.20;99.90
12720;DHT22;6424;48.520;11.228;2023-08-07T03:56:53;10.20;99.90
12720;DHT22;6424;48.520;11.228;2023-08-07T03:59:34;10.20;99.90
12720;DHT22;6424;48.520;11.228;2023-08-07T04:02:14;10.20;99.90
12720;DHT22;6424;48.520;11.228;2023-08-07T04:04:55;10.20;99.90
12720;DHT22;6424;48.520;11.228;2023-08-07T04:07:36;10.20;99.90
12720;DHT22;6424;48.520;11.228;2023-08-07T04:10:17;10.20;99.90
12720;DHT22;6424;48.520;11.228;2023-08-07T04:12:57;10.20;99.90
12720;DHT22;6424;48.520;11.228;2023-08-07T04:15:38;10.20;99.90
12720;DHT22;6424;48.520;11.228;2023-08-07T04:18:19;10.30;99.90
12720;DHT22;6424;48.520;11.228;2023-08-07T04:21:00;10.20;99.90
12720;DHT22;6424;48.520;11.228;2023-08-07T04:23:41;10.20;99.90
12720;DHT22;6424;48.520;11.228;2023-08-07T04:26:21;10.20;99.90
12720;DHT22;6424;48.520;11.228;2023-08-07T04:28:47;10.20;99.90
12720;DHT22;6424;48.520;11.228;2023-08-07T04:31:13;10.10;99.90
12720;DHT22;6424;48.520;11.228;2023-08-07T04:33:54;10.10;99.90
12720;DHT22;6424;48.520;11.228;2023-08-07T04:36:35;10.10;99.90
12720;DHT22;6424;48.520;11.228;2023-08-07T04:39:15;10.10;99.90
12720;DHT22;6424;48.520;11.228;2023-08-07T04:41:57;10.00;99.90
12720;DHT22;6424;48.520;11.228;2023-08-07T04:44:37;10.10;99.90
12720;DHT22;6424;48.520;11.228;2023-08-07T04:47:18;10.00;99.90
12720;DHT22;6424;48.520;11.228;2023-08-07T04:49:59;10.10;99.90
12720;DHT22;6424;48.520;11.228;2023-08-07T04:52:40;10.10;99.90
12720;DHT22;6424;48.520;11.228;2023-08-07T04:55:20;10.10;99.90
12720;DHT22;6424;48.520;11.228;2023-08-07T04:58:01;10.00;99.90
12720;DHT22;6424;48.520;11.228;2023-08-07T05:00:42;10.00;99.90
12720;DHT22;6424;48.520;11.228;2023-08-07T05:03:24;10.00;99.90
12720;DHT22;6424;48.520;11.228;2023-08-07T05:05:50;10.00;99.90
12720;DHT22;6424;48.520;11.228;2023-08-07T05:08:31;10.00;99.90
12720;DHT22;6424;48.520;11.228;2023-08-07T05:11:11;10.00;99.90
12720;DHT22;6424;48.520;11.228;2023-08-07T05:13:52;10.00;99.90
12720;DHT22;6424;48.520;11.228;2023-08-07T05:16:33;10.00;99.90
12720;DHT22;6424;48.520;11.228;2023-08-07T05:19:14;10.00;99.90
12720;DHT22;6424;48.520;11.228;2023-08-07T05:21:54;10.00;99.90
12720;DHT22;6424;48.520;11.228;2023-08-07T05:24:35;9.90;99.90
12720;DHT22;6424;48.520;11.228;2023-08-07T05:27:19;10.00;99.90
12720;DHT22;6424;48.520;11.228;2023-08-07T05:30:00;9.90;99.90
12720;DHT22;6424;48.520;11.228;2023-08-07T05:32:41;10.00;99.90
12720;DHT22;6424;48.520;11.228;2023-08-07T05:35:21;10.00;99.90
12720;DHT22;6424;48.520;11.228;2023-08-07T05:38:02;10.00;99.90
12720;DHT22;6424;48.520;11.228;2023-08-07T05:40:43;10.10;99.90
12720;DHT22;6424;48.520;11.228;2023-08-07T05:43:24;10.10;99.90
12720;DHT22;6424;48.520;11.228;2023-08-07T05:46:05;10.10;99.90
12720;DHT22;6424;48.520;11.228;2023-08-07T05:48:46;10.10;99.90
12720;DHT22;6424;48.520;11.228;2023-08-07T05:51:26;10.10;99.90
12720;DHT22;6424;48.520;11.228;2023-08-07T05:54:07;10.10;99.90
12720;DHT22;6424;48.520;11.228;2023-08-07T05:56:48;10.10;99.90
12720;DHT22;6424;48.520;11.228;2023-08-07T05:59:29;10.10;99.90
12720;DHT22;6424;48.520;11.228;2023-08-07T06:02:10;10.20;99.90
12720;DHT22;6424;48.520;11.228;2023-08-07T06:04:53;10.20;99.90
12720;DHT22;6424;48.520;11.228;2023-08-07T06:07:34;10.20;99.90
12720;DHT22;6424;48.520;11.228;2023-08-07T06:10:15;10.20;99.90
12720;DHT22;6424;48.520;11.228;2023-08-07T06:12:56;10.30;99.90
12720;DHT22;6424;48.520;11.228;2023-08-07T06:15:37;10.30;99.90
12720;DHT22;6424;48.520;11.228;2023-08-07T06:18:18;10.30;99.90
12720;DHT22;6424;48.520;11.228;2023-08-07T06:20:59;10.40;99.90
12720;DHT22;6424;48.520;11.228;2023-08-07T06:23:40;10.40;99.90
12720;DHT22;6424;48.520;11.228;2023-08-07T06:26:20;10.50;99.90
12720;DHT22;6424;48.520;11.228;2023-08-07T06:29:01;10.50;99.90
12720;DHT22;6424;48.520;11.228;2023-08-07T06:31:42;10.60;99.90
12720;DHT22;6424;48.520;11.228;2023-08-07T06:34:23;10.80;99.90
12720;DHT22;6424;48.520;11.228;2023-08-07T06:37:05;10.90;99.90
12720;DHT22;6424;48.520;11.228;2023-08-07T06:39:45;11.00;99.90
12720;DHT22;6424;48.520;11.228;2023-08-07T06:42:27;11.10;99.90
12720;DHT22;6424;48.520;11.228;2023-08-07T06:45:08;11.20;99.90
12720;DHT22;6424;48.520;11.228;2023-08-07T06:47:48;11.10;99.90
12720;DHT22;6424;48.520;11.228;2023-08-07T06:50:29;11.20;99.90
12720;DHT22;6424;48.520;11.228;2023-08-07T06:53:10;11.20;99.90
12720;DHT22;6424;48.520;11.228;2023-08-07T06:55:36;11.20;99.90
12720;DHT22;6424;48.520;11.228;2023-08-07T06:58:17;11.20;99.90
12720;DHT22;6424;48.520;11.228;2023-08-07T07:00:42;11.30;99.90
12720;DHT22;6424;48.520;11.228;2023-08-07T07:03:23;11.40;99.90
12720;DHT22;6424;48.520;11.228;2023-08-07T07:06:04;11.50;99.90
12720;DHT22;6424;48.520;11.228;2023-08-07T07:08:45;11.70;99.90
12720;DHT22;6424;48.520;11.228;2023-08-07T07:11:25;11.90;99.90
12720;DHT22;6424;48.520;11.228;2023-08-07T07:14:06;12.00;99.90
12720;DHT22;6424;48.520;11.228;2023-08-07T07:16:47;12.10;99.90
12720;DHT22;6424;48.520;11.228;2023-08-07T07:19:28;12.20;99.90
12720;DHT22;6424;48.520;11.228;2023-08-07T07:22:09;12.30;99.90
12720;DHT22;6424;48.520;11.228;2023-08-07T07:24:50;12.40;99.90
12720;DHT22;6424;48.520;11.228;2023-08-07T07:27:31;12.40;99.90
12720;DHT22;6424;48.520;11.228;2023-08-07T07:30:11;12.50;99.90
12720;DHT22;6424;48.520;11.228;2023-08-07T07:32:52;12.60;99.90
12720;DHT22;6424;48.520;11.228;2023-08-07T07:35:37;12.70;99.90
12720;DHT22;6424;48.520;11.228;2023-08-07T07:38:19;12.70;99.90
12720;DHT22;6424;48.520;11.228;2023-08-07T07:41:00;12.70;99.90
12720;DHT22;6424;48.520;11.228;2023-08-07T07:43:41;12.80;99.90
12720;DHT22;6424;48.520;11.228;2023-08-07T07:46:22;12.80;99.90
12720;DHT22;6424;48.520;11.228;2023-08-07T07:49:04;12.90;99.90
12720;DHT22;6424;48.520;11.228;2023-08-07T07:51:45;13.10;99.90
12720;DHT22;6424;48.520;11.228;2023-08-07T07:54:12;13.20;99.90
12720;DHT22;6424;48.520;11.228;2023-08-07T07:56:52;13.40;99.90
12720;DHT22;6424;48.520;11.228;2023-08-07T07:59:18;13.60;99.90
12720;DHT22;6424;48.520;11.228;2023-08-07T08:01:59;13.80;99.90
12720;DHT22;6424;48.520;11.228;2023-08-07T08:04:40;13.90;99.90
12720;DHT22;6424;48.520;11.228;2023-08-07T08:07:20;13.80;99.90
12720;DHT22;6424;48.520;11.228;2023-08-07T08:10:01;13.70;99.90
12720;DHT22;6424;48.520;11.228;2023-08-07T08:12:42;13.70;99.90
12720;DHT22;6424;48.520;11.228;2023-08-07T08:15:23;13.60;99.90
12720;DHT22;6424;48.520;11.228;2023-08-07T08:18:04;13.70;99.90
12720;DHT22;6424;48.520;11.228;2023-08-07T08:20:45;13.70;99.90
12720;DHT22;6424;48.520;11.228;2023-08-07T08:23:26;13.70;99.90
12720;DHT22;6424;48.520;11.228;2023-08-07T08:26:07;13.70;99.90
12720;DHT22;6424;48.520;11.228;2023-08-07T08:28:47;13.70;99.90
12720;DHT22;6424;48.520;11.228;2023-08-07T08:31:28;13.70;99.90
12720;DHT22;6424;48.520;11.228;2023-08-07T08:34:09;13.70;99.90
12720;DHT22;6424;48.520;11.228;2023-08-07T08:36:50;13.70;99.90
12720;DHT22;6424;48.520;11.228;2023-08-07T08:39:31;13.80;99.90
12720;DHT22;6424;48.520;11.228;2023-08-07T08:42:12;13.80;99.90
12720;DHT22;6424;48.520;11.228;2023-08-07T08:44:59;13.80;99.90
12720;DHT22;6424;48.520;11.228;2023-08-07T08:47:26;13.80;99.90
12720;DHT22;6424;48.520;11.228;2023-08-07T08:50:09;13.90;99.90
12720;DHT22;6424;48.520;11.228;2023-08-07T08:52:51;13.90;99.90
12720;DHT22;6424;48.520;11.228;2023-08-07T08:55:33;14.00;99.90
12720;DHT22;6424;48.520;11.228;2023-08-07T08:58:15;14.00;99.90
12720;DHT22;6424;48.520;11.228;2023-08-07T09:00:57;14.10;99.90
12720;DHT22;6424;48.520;11.228;2023-08-07T09:03:38;14.30;99.90
12720;DHT22;6424;48.520;11.228;2023-08-07T09:06:19;14.30;99.90
12720;DHT22;6424;48.520;11.228;2023-08-07T09:09:00;14.40;99.90
12720;DHT22;6424;48.520;11.228;2023-08-07T09:11:43;14.40;99.90
12720;DHT22;6424;48.520;11.228;2023-08-07T09:14:27;14.40;99.90
12720;DHT22;6424;48.520;11.228;2023-08-07T09:17:01;14.50;99.90
12720;DHT22;6424;48.520;11.228;2023-08-07T09:19:42;14.60;99.90
12720;DHT22;6424;48.520;11.228;2023-08-07T09:22:23;14.70;99.90
12720;DHT22;6424;48.520;11.228;2023-08-07T09:25:04;14.80;99.90
12720;DHT22;6424;48.520;11.228;2023-08-07T09:27:45;14.80;99.90
12720;DHT22;6424;48.520;11.228;2023-08-07T09:30:28;14.90;99.90
12720;DHT22;6424;48.520;11.228;2023-08-07T09:33:09;15.00;99.90
12720;DHT22;6424;48.520;11.228;2023-08-07T09:35:50;15.00;99.90
12720;DHT22;6424;48.520;11.228;2023-08-07T09:38:16;14.90;99.90
12720;DHT22;6424;48.520;11.228;2023-08-07T09:40:42;14.90;99.90
12720;DHT22;6424;48.520;11.228;2023-08-07T09:43:23;14.80;99.90
12720;DHT22;6424;48.520;11.228;2023-08-07T09:45:49;14.70;99.90
12720;DHT22;6424;48.520;11.228;2023-08-07T09:48:39;14.60;99.90
12720;DHT22;6424;48.520;11.228;2023-08-07T09:51:20;14.40;99.90
12720;DHT22;6424;48.520;11.228;2023-08-07T09:54:02;14.30;99.90
12720;DHT22;6424;48.520;11.228;2023-08-07T09:56:43;14.30;99.90
12720;DHT22;6424;48.520;11.228;2023-08-07T09:59:11;14.30;99.90
12720;DHT22;6424;48.520;11.228;2023-08-07T10:01:37;14.20;99.90
12720;DHT22;6424;48.520;11.228;2023-08-07T10:04:07;14.20;99.90
12720;DHT22;6424;48.520;11.228;2023-08-07T10:06:48;14.20;99.90
12720;DHT22;6424;48.520;11.228;2023-08-07T10:09:30;14.10;99.90
12720;DHT22;6424;48.520;11.228;2023-08-07T10:12:12;14.00;99.90
12720;DHT22;6424;48.520;11.228;2023-08-07T10:14:54;14.00;99.90
12720;DHT22;6424;48.520;11.228;2023-08-07T10:17:35;14.10;99.90
12720;DHT22;6424;48.520;11.228;2023-08-07T10:20:16;14.30;99.90
12720;DHT22;6424;48.520;11.228;2023-08-07T10:23:02;14.40;99.90
12720;DHT22;6424;48.520;11.228;2023-08-07T10:25:46;14.70;99.90
12720;DHT22;6424;48.520;11.228;2023-08-07T10:28:17;15.00;99.90
12720;DHT22;6424;48.520;11.228;2023-08-07T10:30:59;15.40;99.90
12720;DHT22;6424;48.520;11.228;2023-08-07T10:33:41;15.80;99.90
12720;DHT22;6424;48.520;11.228;2023-08-07T10:36:22;16.10;99.90
12720;DHT22;6424;48.520;11.228;2023-08-07T10:39:07;16.30;99.90
12720;DHT22;6424;48.520;11.228;2023-08-07T10:41:53;16.50;99.90
12720;DHT22;6424;48.520;11.228;2023-08-07T10:44:48;16.60;99.90
12720;DHT22;6424;48.520;11.228;2023-08-07T10:47:33;16.70;99.90
12720;DHT22;6424;48.520;11.228;2023-08-07T10:49:59;16.80;99.90
12720;DHT22;6424;48.520;11.228;2023-08-07T10:52:40;16.70;99.90
12720;DHT22;6424;48.520;11.228;2023-08-07T10:55:21;16.70;99.90
12720;DHT22;6424;48.520;11.228;2023-08-07T10:57:49;16.70;99.90
12720;DHT22;6424;48.520;11.228;2023-08-07T11:00:29;16.60;99.90
12720;DHT22;6424;48.520;11.228;2023-08-07T11:02:58;16.50;99.90
12720;DHT22;6424;48.520;11.228;2023-08-07T11:05:40;16.30;99.90
12720;DHT22;6424;48.520;11.228;2023-08-07T11:08:24;16.10;99.90
12720;DHT22;6424;48.520;11.228;2023-08-07T11:11:05;16.20;99.90
12720;DHT22;6424;48.520;11.228;2023-08-07T11:13:46;16.10;99.90
12720;DHT22;6424;48.520;11.228;2023-08-07T11:16:12;16.10;99.90
12720;DHT22;6424;48.520;11.228;2023-08-07T11:18:54;16.10;99.90
12720;DHT22;6424;48.520;11.228;2023-08-07T11:21:36;16.00;99.90
12720;DHT22;6424;48.520;11.228;2023-08-07T11:24:02;15.90;99.90
12720;DHT22;6424;48.520;11.228;2023-08-07T11:26:46;16.00;99.90
12720;DHT22;6424;48.520;11.228;2023-08-07T11:29:27;16.20;99.90
12720;DHT22;6424;48.520;11.228;2023-08-07T11:32:11;16.40;99.90
12720;DHT22;6424;48.520;11.228;2023-08-07T11:34:37;16.70;99.90
12720;DHT22;6424;48.520;11.228;2023-08-07T11:37:18;16.90;99.90
12720;DHT22;6424;48.520;11.228;2023-08-07T11:40:02;17.00;99.90
12720;DHT22;6424;48.520;11.228;2023-08-07T11:42:43;17.00;99.90
12720;DHT22;6424;48.520;11.228;2023-08-07T11:45:24;16.90;99.90
12720;DHT22;6424;48.520;11.228;2023-08-07T11:48:05;16.80;99.90
12720;DHT22;6424;48.520;11.228;2023-08-07T11:50:30;16.80;99.90
12720;DHT22;6424;48.520;11.228;2023-08-07T11:53:12;16.80;99.90
12720;DHT22;6424;48.520;11.228;2023-08-07T11:55:55;16.80;99.90
12720;DHT22;6424;48.520;11.228;2023-08-07T11:58:42;16.90;99.90
12720;DHT22;6424;48.520;11.228;2023-08-07T12:01:25;16.80;99.90
12720;DHT22;6424;48.520;11.228;2023-08-07T12:06:56;16.70;99.90
12720;DHT22;6424;48.520;11.228;2023-08-07T12:09:37;16.60;99.90
12720;DHT22;6424;48.520;11.228;2023-08-07T12:12:19;16.60;99.90
12720;DHT22;6424;48.520;11.228;2023-08-07T12:15:00;16.60;99.90
12720;DHT22;6424;48.520;11.228;2023-08-07T12:17:41;16.60;99.90
12720;DHT22;6424;48.520;11.228;2023-08-07T12:20:22;16.50;99.90
12720;DHT22;6424;48.520;11.228;2023-08-07T12:23:03;16.50;99.90
12720;DHT22;6424;48.520;11.228;2023-08-07T12:25:44;16.60;99.90
12720;DHT22;6424;48.520;11.228;2023-08-07T12:28:25;16.70;99.90
12720;DHT22;6424;48.520;11.228;2023-08-07T12:31:06;16.70;99.90
12720;DHT22;6424;48.520;11.228;2023-08-07T12:33:47;16.70;99.90
12720;DHT22;6424;48.520;11.228;2023-08-07T12:36:28;16.80;99.90
12720;DHT22;6424;48.520;11.228;2023-08-07T12:39:08;16.90;99.90
12720;DHT22;6424;48.520;11.228;2023-08-07T12:41:50;16.90;99.90
12720;DHT22;6424;48.520;11.228;2023-08-07T12:44:30;16.90;99.90
12720;DHT22;6424;48.520;11.228;2023-08-07T12:47:11;17.00;99.90
12720;DHT22;6424;48.520;11.228;2023-08-07T12:49:52;17.20;99.90
12720;DHT22;6424;48.520;11.228;2023-08-07T12:52:18;17.60;99.90
12720;DHT22;6424;48.520;11.228;2023-08-07T12:54:59;17.80;99.90
12720;DHT22;6424;48.520;11.228;2023-08-07T12:57:41;18.00;99.90
12720;DHT22;6424;48.520;11.228;2023-08-07T13:00:23;18.10;99.90
12720;DHT22;6424;48.520;11.228;2023-08-07T13:03:04;18.00;99.90
12720;DHT22;6424;48.520;11.228;2023-08-07T13:05:30;18.10;99.90
12720;DHT22;6424;48.520;11.228;2023-08-07T13:08:11;18.20;99.90
12720;DHT22;6424;48.520;11.228;2023-08-07T13:10:52;18.30;99.80
12720;DHT22;6424;48.520;11.228;2023-08-07T13:13:19;18.30;99.10
12720;DHT22;6424;48.520;11.228;2023-08-07T13:16:00;18.50;98.60
12720;DHT22;6424;48.520;11.228;2023-08-07T13:18:40;18.50;98.60
12720;DHT22;6424;48.520;11.228;2023-08-07T13:21:21;18.40;98.50
12720;DHT22;6424;48.520;11.228;2023-08-07T13:24:02;18.40;98.30
12720;DHT22;6424;48.520;11.228;2023-08-07T13:26:43;18.20;97.50
12720;DHT22;6424;48.520;11.228;2023-08-07T13:29:26;17.90;96.90
12720;DHT22;6424;48.520;11.228;2023-08-07T13:32:10;17.80;98.50
12720;DHT22;6424;48.520;11.228;2023-08-07T13:34:51;17.80;98.30
12720;DHT22;6424;48.520;11.228;2023-08-07T13:37:32;17.80;97.70
12720;DHT22;6424;48.520;11.228;2023-08-07T13:40:14;17.50;96.60
12720;DHT22;6424;48.520;11.228;2023-08-07T13:42:54;17.30;96.60
12720;DHT22;6424;48.520;11.228;2023-08-07T13:45:36;17.00;97.10
12720;DHT22;6424;48.520;11.228;2023-08-07T13:48:18;16.60;97.70
12720;DHT22;6424;48.520;11.228;2023-08-07T13:50:58;16.40;99.50
12720;DHT22;6424;48.520;11.228;2023-08-07T13:53:42;16.20;99.90
12720;DHT22;6424;48.520;11.228;2023-08-07T13:56:22;16.10;99.90
12720;DHT22;6424;48.520;11.228;2023-08-07T13:59:03;16.10;99.90
12720;DHT22;6424;48.520;11.228;2023-08-07T14:01:29;16.00;99.90
12720;DHT22;6424;48.520;11.228;2023-08-07T14:04:10;16.00;99.90
12720;DHT22;6424;48.520;11.228;2023-08-07T14:06:51;16.00;99.90
12720;DHT22;6424;48.520;11.228;2023-08-07T14:09:31;16.00;99.90
12720;DHT22;6424;48.520;11.228;2023-08-07T14:12:12;16.10;99.90
12720;DHT22;6424;48.520;11.228;2023-08-07T14:14:38;16.00;99.90
12720;DHT22;6424;48.520;11.228;2023-08-07T14:17:18;16.00;99.90
12720;DHT22;6424;48.520;11.228;2023-08-07T14:19:59;16.00;99.90
12720;DHT22;6424;48.520;11.228;2023-08-07T14:22:40;15.90;99.90
12720;DHT22;6424;48.520;11.228;2023-08-07T14:25:21;16.00;99.90
12720;DHT22;6424;48.520;11.228;2023-08-07T14:28:03;16.00;99.90
12720;DHT22;6424;48.520;11.228;2023-08-07T14:30:44;16.00;99.90
12720;DHT22;6424;48.520;11.228;2023-08-07T14:33:28;16.00;99.90
12720;DHT22;6424;48.520;11.228;2023-08-07T14:36:10;15.80;99.90
12720;DHT22;6424;48.520;11.228;2023-08-07T14:38:35;15.60;99.90
12720;DHT22;6424;48.520;11.228;2023-08-07T14:41:17;15.50;99.90
12720;DHT22;6424;48.520;11.228;2023-08-07T14:43:44;15.30;99.90
12720;DHT22;6424;48.520;11.228;2023-08-07T14:46:25;15.30;99.90
12720;DHT22;6424;48.520;11.228;2023-08-07T14:48:50;15.20;99.90
12720;DHT22;6424;48.520;11.228;2023-08-07T14:51:31;15.30;99.90
12720;DHT22;6424;48.520;11.228;2023-08-07T14:54:12;15.30;99.90
12720;DHT22;6424;48.520;11.228;2023-08-07T14:56:53;15.30;99.90
12720;DHT22;6424;48.520;11.228;2023-08-07T14:59:33;15.20;99.90
12720;DHT22;6424;48.520;11.228;2023-08-07T15:02:00;15.20;99.90
12720;DHT22;6424;48.520;11.228;2023-08-07T15:04:40;15.20;99.90
12720;DHT22;6424;48.520;11.228;2023-08-07T15:07:21;15.10;99.90
12720;DHT22;6424;48.520;11.228;2023-08-07T15:10:02;15.10;99.90
12720;DHT22;6424;48.520;11.228;2023-08-07T15:12:43;15.10;99.90
12720;DHT22;6424;48.520;11.228;2023-08-07T15:15:09;15.20;99.90
12720;DHT22;6424;48.520;11.228;2023-08-07T15:17:50;15.20;99.90
12720;DHT22;6424;48.520;11.228;2023-08-07T15:20:33;15.30;99.90
12720;DHT22;6424;48.520;11.228;2023-08-07T15:23:14;15.30;99.90
12720;DHT22;6424;48.520;11.228;2023-08-07T15:25:55;15.40;99.90
12720;DHT22;6424;48.520;11.228;2023-08-07T15:28:36;15.40;99.90
12720;DHT22;6424;48.520;11.228;2023-08-07T15:31:02;15.30;99.90
12720;DHT22;6424;48.520;11.228;2023-08-07T15:33:42;15.30;99.90
12720;DHT22;6424;48.520;11.228;2023-08-07T15:36:27;15.30;99.90
12720;DHT22;6424;48.520;11.228;2023-08-07T15:39:08;15.10;99.90
12720;DHT22;6424;48.520;11.228;2023-08-07T15:41:49;15.10;99.90
12720;DHT22;6424;48.520;11.228;2023-08-07T15:44:30;15.10;99.90
12720;DHT22;6424;48.520;11.228;2023-08-07T15:47:11;15.00;99.90
12720;DHT22;6424;48.520;11.228;2023-08-07T15:49:52;14.90;99.90
12720;DHT22;6424;48.520;11.228;2023-08-07T15:52:32;14.90;99.90
12720;DHT22;6424;48.520;11.228;2023-08-07T15:55:13;14.90;99.90
12720;DHT22;6424;48.520;11.228;2023-08-07T15:57:54;14.90;99.90
12720;DHT22;6424;48.520;11.228;2023-08-07T16:00:35;14.90;99.90
12720;DHT22;6424;48.520;11.228;2023-08-07T16:03:16;15.00;99.90
12720;DHT22;6424;48.520;11.228;2023-08-07T16:05:57;15.00;99.90
12720;DHT22;6424;48.520;11.228;2023-08-07T16:08:23;15.00;99.90
12720;DHT22;6424;48.520;11.228;2023-08-07T16:11:04;15.00;99.90
12720;DHT22;6424;48.520;11.228;2023-08-07T16:13:45;15.00;99.90
12720;DHT22;6424;48.520;11.228;2023-08-07T16:16:25;15.00;99.90
12720;DHT22;6424;48.520;11.228;2023-08-07T16:19:06;15.00;99.90
12720;DHT22;6424;48.520;11.228;2023-08-07T16:21:47;15.00;99.90
12720;DHT22;6424;48.520;11.228;2023-08-07T16:24:28;14.90;99.90
12720;DHT22;6424;48.520;11.228;2023-08-07T16:27:09;14.90;99.90
12720;DHT22;6424;48.520;11.228;2023-08-07T16:29:34;14.90;99.90
12720;DHT22;6424;48.520;11.228;2023-08-07T16:32:15;14.90;99.90
12720;DHT22;6424;48.520;11.228;2023-08-07T16:34:57;14.80;99.90
12720;DHT22;6424;48.520;11.228;2023-08-07T16:37:38;14.80;99.90
12720;DHT22;6424;48.520;11.228;2023-08-07T16:40:19;14.90;99.90
12720;DHT22;6424;48.520;11.228;2023-08-07T16:43:01;14.90;99.90
12720;DHT22;6424;48.520;11.228;2023-08-07T16:45:28;15.00;99.90
12720;DHT22;6424;48.520;11.228;2023-08-07T16:48:08;15.00;99.90
12720;DHT22;6424;48.520;11.228;2023-08-07T16:50:34;15.00;99.90
12720;DHT22;6424;48.520;11.228;2023-08-07T16:53:15;15.00;99.90
12720;DHT22;6424;48.520;11.228;2023-08-07T16:55:56;15.10;99.90
12720;DHT22;6424;48.520;11.228;2023-08-07T16:58:37;15.10;99.90